sensor_id;sensor_type;location;lat;lon;timestamp;P1;durP1;ratioP1;P2;durP2;ratioP2
70560;SDS011;58109;53.570;10.084;2023-01-26T00:01:54;118.07;;;37.38;;
70560;SDS011;58109;53.570;10.084;2023-01-26T00:04:20;109.53;;;35.60;;
70560;SDS011;58109;53.570;10.084;2023-01-26T00:06:45;104.37;;;35.80;;
70560;SDS011;58109;53.570;10.084;2023-01-26T00:09:11;103.27;;;36.00;;
70560;SDS011;58109;53.570;10.084;2023-01-26T00:11:38;90.95;;;31.92;;
70560;SDS011;58109;53.570;10.084;2023-01-26T00:14:08;98.05;;;33.65;;
70560;SDS011;58109;53.570;10.084;2023-01-26T00:16:36;104.82;;;35.28;;
70560;SDS011;58109;53.570;10.084;2023-01-26T00:19:02;98.20;;;33.40;;
70560;SDS011;58109;53.570;10.084;2023-01-26T00:21:27;88.97;;;32.57;;
70560;SDS011;58109;53.570;10.084;2023-01-26T00:23:53;91.47;;;33.93;;
70560;SDS011;58109;53.570;10.084;2023-01-26T00:26:23;90.97;;;34.65;;
70560;SDS011;58109;53.570;10.084;2023-01-26T00:28:49;95.75;;;33.92;;
70560;SDS011;58109;53.570;10.084;2023-01-26T00:31:17;104.07;;;35.60;;
70560;SDS011;58109;53.570;10.084;2023-01-26T00:33:44;102.85;;;33.90;;
70560;SDS011;58109;53.570;10.084;2023-01-26T00:36:10;102.87;;;34.60;;
70560;SDS011;58109;53.570;10.084;2023-01-26T00:38:38;98.95;;;33.83;;
70560;SDS011;58109;53.570;10.084;2023-01-26T00:41:06;94.55;;;32.53;;
70560;SDS011;58109;53.570;10.084;2023-01-26T00:43:32;101.13;;;32.03;;
70560;SDS011;58109;53.570;10.084;2023-01-26T00:45:57;92.90;;;32.73;;
70560;SDS011;58109;53.570;10.084;2023-01-26T00:48:22;90.83;;;32.20;;
70560;SDS011;58109;53.570;10.084;2023-01-26T00:50:51;93.70;;;32.20;;
70560;SDS011;58109;53.570;10.084;2023-01-26T00:53:17;94.28;;;35.42;;
70560;SDS011;58109;53.570;10.084;2023-01-26T00:55:42;98.13;;;34.20;;
70560;SDS011;58109;53.570;10.084;2023-01-26T00:58:10;99.78;;;34.08;;
70560;SDS011;58109;53.570;10.084;2023-01-26T01:00:37;103.10;;;33.40;;
70560;SDS011;58109;53.570;10.084;2023-01-26T01:03:05;93.75;;;31.75;;
70560;SDS011;58109;53.570;10.084;2023-01-26T01:05:34;101.80;;;34.55;;
70560;SDS011;58109;53.570;10.084;2023-01-26T01:07:59;90.43;;;32.50;;
70560;SDS011;58109;53.570;10.084;2023-01-26T01:10:25;97.23;;;33.77;;
70560;SDS011;58109;53.570;10.084;2023-01-26T01:12:51;93.22;;;32.30;;
70560;SDS011;58109;53.570;10.084;2023-01-26T01:15:20;102.80;;;33.83;;
70560;SDS011;58109;53.570;10.084;2023-01-26T01:17:45;89.00;;;31.97;;
70560;SDS011;58109;53.570;10.084;2023-01-26T01:20:11;96.00;;;32.33;;
70560;SDS011;58109;53.570;10.084;2023-01-26T01:22:38;98.60;;;33.60;;
70560;SDS011;58109;53.570;10.084;2023-01-26T01:25:04;101.47;;;33.20;;
70560;SDS011;58109;53.570;10.084;2023-01-26T01:27:32;106.68;;;34.10;;
70560;SDS011;58109;53.570;10.084;2023-01-26T01:29:57;105.17;;;34.37;;
70560;SDS011;58109;53.570;10.084;2023-01-26T01:32:22;97.30;;;33.30;;
70560;SDS011;58109;53.570;10.084;2023-01-26T01:34:48;99.53;;;32.80;;
70560;SDS011;58109;53.570;10.084;2023-01-26T01:37:14;96.60;;;33.72;;
70560;SDS011;58109;53.570;10.084;2023-01-26T01:39:43;96.68;;;31.15;;
70560;SDS011;58109;53.570;10.084;2023-01-26T01:42:08;82.60;;;29.80;;
70560;SDS011;58109;53.570;10.084;2023-01-26T01:44:34;89.13;;;31.17;;
70560;SDS011;58109;53.570;10.084;2023-01-26T01:49:58;92.63;;;31.45;;
70560;SDS011;58109;53.570;10.084;2023-01-26T01:52:25;82.20;;;28.13;;
70560;SDS011;58109;53.570;10.084;2023-01-26T01:57:30;93.43;;;28.67;;
70560;SDS011;58109;53.570;10.084;2023-01-26T02:00:10;87.22;;;31.45;;
70560;SDS011;58109;53.570;10.084;2023-01-26T02:02:40;83.68;;;30.40;;
70560;SDS011;58109;53.570;10.084;2023-01-26T02:05:16;78.20;;;28.77;;
70560;SDS011;58109;53.570;10.084;2023-01-26T02:07:48;79.40;;;29.05;;
70560;SDS011;58109;53.570;10.084;2023-01-26T02:10:17;69.88;;;27.13;;
70560;SDS011;58109;53.570;10.084;2023-01-26T02:12:49;73.45;;;28.17;;
70560;SDS011;58109;53.570;10.084;2023-01-26T02:15:17;65.30;;;27.35;;
70560;SDS011;58109;53.570;10.084;2023-01-26T02:17:43;64.90;;;27.40;;
70560;SDS011;58109;53.570;10.084;2023-01-26T02:28:06;73.22;;;26.67;;
70560;SDS011;58109;53.570;10.084;2023-01-26T02:30:32;79.60;;;28.20;;
70560;SDS011;58109;53.570;10.084;2023-01-26T02:32:57;72.73;;;27.90;;
70560;SDS011;58109;53.570;10.084;2023-01-26T02:35:22;78.07;;;28.30;;
70560;SDS011;58109;53.570;10.084;2023-01-26T02:37:50;71.63;;;26.67;;
70560;SDS011;58109;53.570;10.084;2023-01-26T02:42:49;66.95;;;26.77;;
70560;SDS011;58109;53.570;10.084;2023-01-26T02:45:18;70.47;;;26.15;;
70560;SDS011;58109;53.570;10.084;2023-01-26T02:47:45;71.63;;;27.90;;
70560;SDS011;58109;53.570;10.084;2023-01-26T02:50:12;77.20;;;27.47;;
70560;SDS011;58109;53.570;10.084;2023-01-26T02:52:38;80.10;;;30.23;;
70560;SDS011;58109;53.570;10.084;2023-01-26T02:55:04;73.07;;;27.90;;
70560;SDS011;58109;53.570;10.084;2023-01-26T02:57:52;68.75;;;25.88;;
70560;SDS011;58109;53.570;10.084;2023-01-26T03:00:23;71.25;;;27.70;;
70560;SDS011;58109;53.570;10.084;2023-01-26T03:02:53;66.10;;;25.40;;
70560;SDS011;58109;53.570;10.084;2023-01-26T03:05:20;76.03;;;27.77;;
70560;SDS011;58109;53.570;10.084;2023-01-26T03:07:45;71.93;;;28.10;;
70560;SDS011;58109;53.570;10.084;2023-01-26T03:10:11;71.77;;;26.57;;
70560;SDS011;58109;53.570;10.084;2023-01-26T03:12:37;63.00;;;24.90;;
70560;SDS011;58109;53.570;10.084;2023-01-26T03:15:02;75.93;;;26.93;;
70560;SDS011;58109;53.570;10.084;2023-01-26T03:17:46;67.72;;;27.05;;
70560;SDS011;58109;53.570;10.084;2023-01-26T03:20:12;70.37;;;27.83;;
70560;SDS011;58109;53.570;10.084;2023-01-26T03:22:56;75.38;;;28.90;;
70560;SDS011;58109;53.570;10.084;2023-01-26T03:25:40;62.58;;;25.02;;
70560;SDS011;58109;53.570;10.084;2023-01-26T03:28:24;74.60;;;26.75;;
70560;SDS011;58109;53.570;10.084;2023-01-26T03:30:50;72.30;;;26.73;;
70560;SDS011;58109;53.570;10.084;2023-01-26T03:33:18;71.30;;;27.58;;
70560;SDS011;58109;53.570;10.084;2023-01-26T03:35:46;68.97;;;26.55;;
70560;SDS011;58109;53.570;10.084;2023-01-26T03:38:12;68.00;;;25.30;;
70560;SDS011;58109;53.570;10.084;2023-01-26T03:40:37;65.30;;;25.77;;
70560;SDS011;58109;53.570;10.084;2023-01-26T03:43:24;65.40;;;26.17;;
70560;SDS011;58109;53.570;10.084;2023-01-26T03:46:08;75.57;;;27.45;;
70560;SDS011;58109;53.570;10.084;2023-01-26T03:48:52;67.93;;;25.95;;
70560;SDS011;58109;53.570;10.084;2023-01-26T03:51:36;72.05;;;25.05;;
70560;SDS011;58109;53.570;10.084;2023-01-26T03:54:23;62.85;;;24.33;;
70560;SDS011;58109;53.570;10.084;2023-01-26T03:57:07;67.65;;;26.48;;
70560;SDS011;58109;53.570;10.084;2023-01-26T03:59:32;66.70;;;25.27;;
70560;SDS011;58109;53.570;10.084;2023-01-26T04:02:04;69.43;;;26.20;;
70560;SDS011;58109;53.570;10.084;2023-01-26T04:04:53;62.92;;;24.50;;
70560;SDS011;58109;53.570;10.084;2023-01-26T04:07:37;64.05;;;23.50;;
70560;SDS011;58109;53.570;10.084;2023-01-26T04:10:22;59.90;;;23.30;;
70560;SDS011;58109;53.570;10.084;2023-01-26T04:12:47;63.13;;;25.43;;
70560;SDS011;58109;53.570;10.084;2023-01-26T04:15:31;58.00;;;23.30;;
70560;SDS011;58109;53.570;10.084;2023-01-26T04:18:16;66.53;;;25.67;;
70560;SDS011;58109;53.570;10.084;2023-01-26T04:21:05;71.38;;;26.27;;
70560;SDS011;58109;53.570;10.084;2023-01-26T04:23:49;63.83;;;25.27;;
70560;SDS011;58109;53.570;10.084;2023-01-26T04:26:19;62.13;;;24.88;;
70560;SDS011;58109;53.570;10.084;2023-01-26T04:28:44;74.85;;;26.25;;
70560;SDS011;58109;53.570;10.084;2023-01-26T04:31:12;61.75;;;25.77;;
70560;SDS011;58109;53.570;10.084;2023-01-26T04:33:37;63.30;;;26.37;;
70560;SDS011;58109;53.570;10.084;2023-01-26T04:36:06;68.70;;;25.77;;
70560;SDS011;58109;53.570;10.084;2023-01-26T04:38:32;63.97;;;24.92;;
70560;SDS011;58109;53.570;10.084;2023-01-26T04:40:57;67.03;;;26.23;;
70560;SDS011;58109;53.570;10.084;2023-01-26T04:43:27;71.32;;;26.27;;
70560;SDS011;58109;53.570;10.084;2023-01-26T04:45:58;69.90;;;26.13;;
70560;SDS011;58109;53.570;10.084;2023-01-26T04:48:27;69.43;;;26.83;;
70560;SDS011;58109;53.570;10.084;2023-01-26T04:50:54;61.42;;;24.70;;
70560;SDS011;58109;53.570;10.084;2023-01-26T04:53:24;63.28;;;25.15;;
70560;SDS011;58109;53.570;10.084;2023-01-26T04:55:50;71.67;;;27.70;;
70560;SDS011;58109;53.570;10.084;2023-01-26T04:58:15;69.90;;;25.93;;
70560;SDS011;58109;53.570;10.084;2023-01-26T05:00:41;65.43;;;24.47;;
70560;SDS011;58109;53.570;10.084;2023-01-26T05:03:06;63.10;;;24.43;;
70560;SDS011;58109;53.570;10.084;2023-01-26T05:05:35;66.43;;;24.73;;
70560;SDS011;58109;53.570;10.084;2023-01-26T05:08:04;66.72;;;25.25;;
70560;SDS011;58109;53.570;10.084;2023-01-26T05:10:30;74.85;;;25.90;;
70560;SDS011;58109;53.570;10.084;2023-01-26T05:12:55;63.53;;;24.03;;
70560;SDS011;58109;53.570;10.084;2023-01-26T05:15:21;62.73;;;24.67;;
70560;SDS011;58109;53.570;10.084;2023-01-26T05:17:48;60.75;;;25.90;;
70560;SDS011;58109;53.570;10.084;2023-01-26T05:20:15;57.80;;;22.42;;
70560;SDS011;58109;53.570;10.084;2023-01-26T05:22:43;59.30;;;23.83;;
70560;SDS011;58109;53.570;10.084;2023-01-26T05:25:09;60.53;;;23.00;;
70560;SDS011;58109;53.570;10.084;2023-01-26T05:27:36;56.13;;;22.15;;
70560;SDS011;58109;53.570;10.084;2023-01-26T05:30:02;68.37;;;26.80;;
70560;SDS011;58109;53.570;10.084;2023-01-26T05:32:28;58.50;;;22.67;;
70560;SDS011;58109;53.570;10.084;2023-01-26T05:34:54;57.00;;;21.17;;
70560;SDS011;58109;53.570;10.084;2023-01-26T05:37:25;55.28;;;23.27;;
70560;SDS011;58109;53.570;10.084;2023-01-26T05:39:51;56.25;;;23.25;;
70560;SDS011;58109;53.570;10.084;2023-01-26T05:42:16;51.07;;;21.13;;
70560;SDS011;58109;53.570;10.084;2023-01-26T05:44:42;55.57;;;22.10;;
70560;SDS011;58109;53.570;10.084;2023-01-26T05:47:10;54.30;;;21.48;;
70560;SDS011;58109;53.570;10.084;2023-01-26T05:49:35;50.50;;;20.67;;
70560;SDS011;58109;53.570;10.084;2023-01-26T05:52:24;48.80;;;19.33;;
70560;SDS011;58109;53.570;10.084;2023-01-26T05:54:50;49.35;;;21.17;;
70560;SDS011;58109;53.570;10.084;2023-01-26T05:57:18;49.70;;;19.57;;
70560;SDS011;58109;53.570;10.084;2023-01-26T05:59:43;47.25;;;18.50;;
70560;SDS011;58109;53.570;10.084;2023-01-26T06:02:10;47.67;;;19.10;;
70560;SDS011;58109;53.570;10.084;2023-01-26T06:04:36;49.38;;;20.02;;
70560;SDS011;58109;53.570;10.084;2023-01-26T06:07:02;47.20;;;19.67;;
70560;SDS011;58109;53.570;10.084;2023-01-26T06:09:27;44.87;;;18.90;;
70560;SDS011;58109;53.570;10.084;2023-01-26T06:11:53;48.20;;;18.87;;
70560;SDS011;58109;53.570;10.084;2023-01-26T06:14:18;43.90;;;18.23;;
70560;SDS011;58109;53.570;10.084;2023-01-26T06:16:46;46.78;;;19.23;;
70560;SDS011;58109;53.570;10.084;2023-01-26T06:19:11;47.47;;;19.20;;
70560;SDS011;58109;53.570;10.084;2023-01-26T06:21:39;56.40;;;20.37;;
70560;SDS011;58109;53.570;10.084;2023-01-26T06:24:04;42.38;;;19.08;;
70560;SDS011;58109;53.570;10.084;2023-01-26T06:26:30;49.67;;;19.43;;
70560;SDS011;58109;53.570;10.084;2023-01-26T06:28:58;46.13;;;19.60;;
70560;SDS011;58109;53.570;10.084;2023-01-26T06:31:23;46.42;;;19.30;;
70560;SDS011;58109;53.570;10.084;2023-01-26T06:33:49;48.30;;;18.30;;
70560;SDS011;58109;53.570;10.084;2023-01-26T06:36:15;42.70;;;17.40;;
70560;SDS011;58109;53.570;10.084;2023-01-26T06:38:47;44.37;;;18.47;;
70560;SDS011;58109;53.570;10.084;2023-01-26T06:41:14;47.03;;;18.83;;
70560;SDS011;58109;53.570;10.084;2023-01-26T06:43:42;44.97;;;17.33;;
70560;SDS011;58109;53.570;10.084;2023-01-26T06:46:11;40.05;;;17.02;;
70560;SDS011;58109;53.570;10.084;2023-01-26T06:48:37;40.13;;;17.23;;
70560;SDS011;58109;53.570;10.084;2023-01-26T06:53:53;42.67;;;17.67;;
70560;SDS011;58109;53.570;10.084;2023-01-26T06:56:20;51.95;;;19.83;;
70560;SDS011;58109;53.570;10.084;2023-01-26T06:58:48;42.95;;;18.15;;
70560;SDS011;58109;53.570;10.084;2023-01-26T07:01:15;42.00;;;16.60;;
70560;SDS011;58109;53.570;10.084;2023-01-26T07:03:46;48.63;;;17.73;;
70560;SDS011;58109;53.570;10.084;2023-01-26T07:06:12;44.10;;;17.75;;
70560;SDS011;58109;53.570;10.084;2023-01-26T07:08:37;38.67;;;17.43;;
70560;SDS011;58109;53.570;10.084;2023-01-26T07:11:03;44.73;;;17.20;;
70560;SDS011;58109;53.570;10.084;2023-01-26T07:13:29;38.77;;;16.00;;
70560;SDS011;58109;53.570;10.084;2023-01-26T07:16:03;48.42;;;16.27;;
70560;SDS011;58109;53.570;10.084;2023-01-26T07:18:36;39.00;;;15.75;;
70560;SDS011;58109;53.570;10.084;2023-01-26T07:21:02;38.10;;;15.30;;
70560;SDS011;58109;53.570;10.084;2023-01-26T07:23:32;34.58;;;14.85;;
70560;SDS011;58109;53.570;10.084;2023-01-26T07:25:58;43.80;;;14.90;;
70560;SDS011;58109;53.570;10.084;2023-01-26T07:28:25;36.80;;;14.70;;
70560;SDS011;58109;53.570;10.084;2023-01-26T07:30:51;32.03;;;14.10;;
70560;SDS011;58109;53.570;10.084;2023-01-26T07:33:19;37.67;;;14.07;;
70560;SDS011;58109;53.570;10.084;2023-01-26T07:35:45;30.83;;;13.32;;
70560;SDS011;58109;53.570;10.084;2023-01-26T07:38:10;33.43;;;14.57;;
70560;SDS011;58109;53.570;10.084;2023-01-26T07:40:38;32.60;;;15.02;;
70560;SDS011;58109;53.570;10.084;2023-01-26T07:43:04;35.53;;;15.85;;
70560;SDS011;58109;53.570;10.084;2023-01-26T07:45:29;37.30;;;16.57;;
70560;SDS011;58109;53.570;10.084;2023-01-26T07:47:57;36.70;;;15.90;;
70560;SDS011;58109;53.570;10.084;2023-01-26T07:50:27;33.45;;;14.68;;
70560;SDS011;58109;53.570;10.084;2023-01-26T07:52:52;35.77;;;15.23;;
70560;SDS011;58109;53.570;10.084;2023-01-26T07:55:18;37.00;;;16.50;;
70560;SDS011;58109;53.570;10.084;2023-01-26T07:57:46;36.80;;;14.80;;
70560;SDS011;58109;53.570;10.084;2023-01-26T08:00:13;43.83;;;15.70;;
70560;SDS011;58109;53.570;10.084;2023-01-26T08:02:41;37.63;;;15.57;;
70560;SDS011;58109;53.570;10.084;2023-01-26T08:05:07;34.60;;;16.50;;
70560;SDS011;58109;53.570;10.084;2023-01-26T08:07:35;38.38;;;16.35;;
70560;SDS011;58109;53.570;10.084;2023-01-26T08:10:02;35.17;;;15.43;;
70560;SDS011;58109;53.570;10.084;2023-01-26T08:12:33;38.92;;;16.17;;
70560;SDS011;58109;53.570;10.084;2023-01-26T08:15:02;35.33;;;15.07;;
70560;SDS011;58109;53.570;10.084;2023-01-26T08:17:28;30.00;;;13.90;;
70560;SDS011;58109;53.570;10.084;2023-01-26T08:19:54;33.05;;;14.07;;
70560;SDS011;58109;53.570;10.084;2023-01-26T08:22:20;30.70;;;13.10;;
70560;SDS011;58109;53.570;10.084;2023-01-26T08:24:49;34.30;;;13.35;;
70560;SDS011;58109;53.570;10.084;2023-01-26T08:27:19;33.72;;;13.93;;
70560;SDS011;58109;53.570;10.084;2023-01-26T08:29:47;32.80;;;13.68;;
70560;SDS011;58109;53.570;10.084;2023-01-26T08:32:17;29.98;;;12.65;;
70560;SDS011;58109;53.570;10.084;2023-01-26T08:34:47;30.58;;;13.88;;
70560;SDS011;58109;53.570;10.084;2023-01-26T08:37:14;34.38;;;14.13;;
70560;SDS011;58109;53.570;10.084;2023-01-26T08:39:39;27.97;;;12.70;;
70560;SDS011;58109;53.570;10.084;2023-01-26T08:42:04;34.30;;;13.80;;
70560;SDS011;58109;53.570;10.084;2023-01-26T08:44:30;36.30;;;14.17;;
70560;SDS011;58109;53.570;10.084;2023-01-26T08:46:58;37.22;;;15.40;;
70560;SDS011;58109;53.570;10.084;2023-01-26T08:49:25;31.93;;;13.43;;
70560;SDS011;58109;53.570;10.084;2023-01-26T08:51:51;31.40;;;13.55;;
70560;SDS011;58109;53.570;10.084;2023-01-26T08:54:16;30.43;;;14.00;;
70560;SDS011;58109;53.570;10.084;2023-01-26T08:56:44;33.57;;;13.10;;
70560;SDS011;58109;53.570;10.084;2023-01-26T08:59:09;34.20;;;12.15;;
70560;SDS011;58109;53.570;10.084;2023-01-26T09:01:35;33.00;;;14.80;;
70560;SDS011;58109;53.570;10.084;2023-01-26T09:04:04;36.92;;;14.73;;
70560;SDS011;58109;53.570;10.084;2023-01-26T09:06:32;33.35;;;13.75;;
70560;SDS011;58109;53.570;10.084;2023-01-26T09:08:59;36.25;;;15.00;;
70560;SDS011;58109;53.570;10.084;2023-01-26T09:11:25;33.70;;;14.77;;
70560;SDS011;58109;53.570;10.084;2023-01-26T09:13:53;36.87;;;14.00;;
70560;SDS011;58109;53.570;10.084;2023-01-26T09:16:21;29.50;;;13.13;;
70560;SDS011;58109;53.570;10.084;2023-01-26T09:18:48;26.95;;;12.85;;
70560;SDS011;58109;53.570;10.084;2023-01-26T09:21:16;32.83;;;12.95;;
70560;SDS011;58109;53.570;10.084;2023-01-26T09:23:44;31.02;;;13.52;;
70560;SDS011;58109;53.570;10.084;2023-01-26T09:26:09;30.53;;;13.17;;
70560;SDS011;58109;53.570;10.084;2023-01-26T09:28:35;26.67;;;12.10;;
70560;SDS011;58109;53.570;10.084;2023-01-26T09:31:07;30.23;;;11.77;;
70560;SDS011;58109;53.570;10.084;2023-01-26T09:33:35;32.78;;;13.52;;
70560;SDS011;58109;53.570;10.084;2023-01-26T09:36:02;25.63;;;11.50;;
70560;SDS011;58109;53.570;10.084;2023-01-26T09:38:33;26.40;;;11.35;;
70560;SDS011;58109;53.570;10.084;2023-01-26T09:43:59;27.90;;;10.20;;
70560;SDS011;58109;53.570;10.084;2023-01-26T09:49:35;23.85;;;10.85;;
70560;SDS011;58109;53.570;10.084;2023-01-26T09:52:21;19.73;;;9.90;;
70560;SDS011;58109;53.570;10.084;2023-01-26T09:55:11;20.02;;;9.30;;
70560;SDS011;58109;53.570;10.084;2023-01-26T10:00:45;24.67;;;10.10;;
70560;SDS011;58109;53.570;10.084;2023-01-26T10:03:24;18.63;;;8.30;;
70560;SDS011;58109;53.570;10.084;2023-01-26T10:08:23;22.17;;;9.90;;
70560;SDS011;58109;53.570;10.084;2023-01-26T10:10:57;25.25;;;10.00;;
70560;SDS011;58109;53.570;10.084;2023-01-26T10:13:25;20.77;;;9.25;;
70560;SDS011;58109;53.570;10.084;2023-01-26T10:15:59;26.27;;;10.83;;
70560;SDS011;58109;53.570;10.084;2023-01-26T10:18:28;23.80;;;10.18;;
70560;SDS011;58109;53.570;10.084;2023-01-26T10:20:58;27.50;;;10.98;;
70560;SDS011;58109;53.570;10.084;2023-01-26T10:25:52;21.77;;;9.85;;
70560;SDS011;58109;53.570;10.084;2023-01-26T10:28:19;30.70;;;9.23;;
70560;SDS011;58109;53.570;10.084;2023-01-26T10:30:54;24.80;;;9.82;;
70560;SDS011;58109;53.570;10.084;2023-01-26T10:35:48;29.40;;;10.50;;
70560;SDS011;58109;53.570;10.084;2023-01-26T10:41:00;30.63;;;10.88;;
70560;SDS011;58109;53.570;10.084;2023-01-26T10:46:23;32.13;;;11.25;;
70560;SDS011;58109;53.570;10.084;2023-01-26T10:48:58;32.95;;;11.45;;
70560;SDS011;58109;53.570;10.084;2023-01-26T10:51:31;28.95;;;11.05;;
70560;SDS011;58109;53.570;10.084;2023-01-26T10:59:38;30.80;;;12.10;;
70560;SDS011;58109;53.570;10.084;2023-01-26T11:05:42;37.33;;;14.30;;
70560;SDS011;58109;53.570;10.084;2023-01-26T11:07:41;39.85;;;14.15;;
70560;SDS011;58109;53.570;10.084;2023-01-26T11:10:21;42.88;;;12.88;;
70560;SDS011;58109;53.570;10.084;2023-01-26T11:13:05;41.30;;;13.90;;
70560;SDS011;58109;53.570;10.084;2023-01-26T11:15:45;40.67;;;11.60;;
70560;SDS011;58109;53.570;10.084;2023-01-26T11:18:16;35.33;;;13.48;;
70560;SDS011;58109;53.570;10.084;2023-01-26T11:31:29;45.80;;;14.35;;
70560;SDS011;58109;53.570;10.084;2023-01-26T11:37:41;51.22;;;15.60;;
70560;SDS011;58109;53.570;10.084;2023-01-26T11:40:47;36.42;;;12.45;;
70560;SDS011;58109;53.570;10.084;2023-01-26T11:46:12;44.47;;;13.25;;
70560;SDS011;58109;53.570;10.084;2023-01-26T11:59:31;43.67;;;13.48;;
70560;SDS011;58109;53.570;10.084;2023-01-26T12:02:19;42.20;;;13.75;;
70560;SDS011;58109;53.570;10.084;2023-01-26T12:04:47;50.15;;;12.38;;
70560;SDS011;58109;53.570;10.084;2023-01-26T12:09:56;34.55;;;12.43;;
70560;SDS011;58109;53.570;10.084;2023-01-26T12:15:17;38.92;;;12.00;;
70560;SDS011;58109;53.570;10.084;2023-01-26T12:23:54;38.47;;;14.75;;
70560;SDS011;58109;53.570;10.084;2023-01-26T12:26:14;42.88;;;13.60;;
70560;SDS011;58109;53.570;10.084;2023-01-26T12:33:36;37.57;;;13.03;;
70560;SDS011;58109;53.570;10.084;2023-01-26T12:36:12;61.83;;;18.98;;
70560;SDS011;58109;53.570;10.084;2023-01-26T12:44:16;49.05;;;14.15;;
70560;SDS011;58109;53.570;10.084;2023-01-26T12:46:48;47.72;;;14.77;;
70560;SDS011;58109;53.570;10.084;2023-01-26T12:49:17;39.85;;;12.32;;
70560;SDS011;58109;53.570;10.084;2023-01-26T12:51:48;40.13;;;13.73;;
70560;SDS011;58109;53.570;10.084;2023-01-26T12:54:22;39.58;;;13.98;;
70560;SDS011;58109;53.570;10.084;2023-01-26T12:56:55;38.42;;;12.50;;
70560;SDS011;58109;53.570;10.084;2023-01-26T13:01:55;60.33;;;18.50;;
70560;SDS011;58109;53.570;10.084;2023-01-26T13:04:25;38.00;;;12.63;;
70560;SDS011;58109;53.570;10.084;2023-01-26T13:07:03;34.58;;;11.82;;
70560;SDS011;58109;53.570;10.084;2023-01-26T13:15:45;32.75;;;11.60;;
70560;SDS011;58109;53.570;10.084;2023-01-26T13:18:15;33.07;;;11.10;;
70560;SDS011;58109;53.570;10.084;2023-01-26T13:20:42;35.00;;;10.35;;
70560;SDS011;58109;53.570;10.084;2023-01-26T13:23:35;29.10;;;10.70;;
70560;SDS011;58109;53.570;10.084;2023-01-26T13:28:46;34.20;;;12.10;;
70560;SDS011;58109;53.570;10.084;2023-01-26T13:31:15;20.80;;;9.35;;
70560;SDS011;58109;53.570;10.084;2023-01-26T13:33:53;25.33;;;9.13;;
70560;SDS011;58109;53.570;10.084;2023-01-26T13:39:28;28.65;;;8.32;;
70560;SDS011;58109;53.570;10.084;2023-01-26T13:41:55;25.50;;;9.68;;
70560;SDS011;58109;53.570;10.084;2023-01-26T13:44:37;23.10;;;10.00;;
70560;SDS011;58109;53.570;10.084;2023-01-26T13:47:10;26.30;;;9.55;;
70560;SDS011;58109;53.570;10.084;2023-01-26T13:49:39;28.90;;;10.35;;
70560;SDS011;58109;53.570;10.084;2023-01-26T13:52:26;20.73;;;8.18;;
70560;SDS011;58109;53.570;10.084;2023-01-26T13:54:52;25.40;;;9.48;;
70560;SDS011;58109;53.570;10.084;2023-01-26T13:59:57;20.27;;;8.57;;
70560;SDS011;58109;53.570;10.084;2023-01-26T14:02:34;23.75;;;9.00;;
70560;SDS011;58109;53.570;10.084;2023-01-26T14:05:02;25.17;;;9.07;;
70560;SDS011;58109;53.570;10.084;2023-01-26T14:07:35;20.20;;;8.82;;
70560;SDS011;58109;53.570;10.084;2023-01-26T14:10:14;22.55;;;8.35;;
70560;SDS011;58109;53.570;10.084;2023-01-26T14:12:55;21.00;;;7.85;;
70560;SDS011;58109;53.570;10.084;2023-01-26T14:15:22;24.27;;;8.45;;
70560;SDS011;58109;53.570;10.084;2023-01-26T14:17:56;20.20;;;7.95;;
70560;SDS011;58109;53.570;10.084;2023-01-26T14:23:00;32.23;;;8.67;;
70560;SDS011;58109;53.570;10.084;2023-01-26T14:25:37;23.63;;;7.95;;
70560;SDS011;58109;53.570;10.084;2023-01-26T14:28:05;21.75;;;7.70;;
70560;SDS011;58109;53.570;10.084;2023-01-26T14:30:32;17.77;;;8.03;;
70560;SDS011;58109;53.570;10.084;2023-01-26T14:33:12;17.98;;;7.85;;
70560;SDS011;58109;53.570;10.084;2023-01-26T14:35:40;21.42;;;7.78;;
70560;SDS011;58109;53.570;10.084;2023-01-26T14:38:18;21.58;;;8.07;;
70560;SDS011;58109;53.570;10.084;2023-01-26T14:40:45;22.93;;;8.30;;
70560;SDS011;58109;53.570;10.084;2023-01-26T14:43:14;20.75;;;8.20;;
70560;SDS011;58109;53.570;10.084;2023-01-26T14:45:42;23.92;;;9.93;;
70560;SDS011;58109;53.570;10.084;2023-01-26T14:48:12;26.65;;;9.18;;
70560;SDS011;58109;53.570;10.084;2023-01-26T14:50:42;17.27;;;7.20;;
70560;SDS011;58109;53.570;10.084;2023-01-26T14:53:20;18.48;;;7.80;;
70560;SDS011;58109;53.570;10.084;2023-01-26T14:55:48;21.55;;;7.63;;
70560;SDS011;58109;53.570;10.084;2023-01-26T14:58:21;22.75;;;7.75;;
70560;SDS011;58109;53.570;10.084;2023-01-26T15:00:49;24.48;;;8.40;;
70560;SDS011;58109;53.570;10.084;2023-01-26T15:03:36;23.88;;;8.07;;
70560;SDS011;58109;53.570;10.084;2023-01-26T15:06:25;22.95;;;8.10;;
70560;SDS011;58109;53.570;10.084;2023-01-26T15:09:02;22.98;;;9.25;;
70560;SDS011;58109;53.570;10.084;2023-01-26T15:11:32;15.25;;;7.57;;
70560;SDS011;58109;53.570;10.084;2023-01-26T15:15:17;23.08;;;8.05;;
70560;SDS011;58109;53.570;10.084;2023-01-26T15:19:53;18.13;;;7.60;;
70560;SDS011;58109;53.570;10.084;2023-01-26T15:22:22;19.33;;;8.10;;
70560;SDS011;58109;53.570;10.084;2023-01-26T15:25:05;16.58;;;7.55;;
70560;SDS011;58109;53.570;10.084;2023-01-26T15:27:48;18.30;;;8.68;;
70560;SDS011;58109;53.570;10.084;2023-01-26T15:30:16;17.55;;;7.10;;
70560;SDS011;58109;53.570;10.084;2023-01-26T15:32:45;21.08;;;8.52;;
70560;SDS011;58109;53.570;10.084;2023-01-26T15:35:18;19.85;;;8.23;;
70560;SDS011;58109;53.570;10.084;2023-01-26T15:37:57;25.95;;;9.07;;
70560;SDS011;58109;53.570;10.084;2023-01-26T15:40:26;20.13;;;9.60;;
70560;SDS011;58109;53.570;10.084;2023-01-26T15:45:53;23.23;;;8.35;;
70560;SDS011;58109;53.570;10.084;2023-01-26T15:48:22;17.35;;;8.18;;
70560;SDS011;58109;53.570;10.084;2023-01-26T15:50:48;19.10;;;8.27;;
70560;SDS011;58109;53.570;10.084;2023-01-26T15:53:18;26.33;;;10.23;;
70560;SDS011;58109;53.570;10.084;2023-01-26T15:55:50;21.48;;;9.15;;
70560;SDS011;58109;53.570;10.084;2023-01-26T15:58:25;24.90;;;10.30;;
70560;SDS011;58109;53.570;10.084;2023-01-26T16:00:55;24.85;;;10.55;;
70560;SDS011;58109;53.570;10.084;2023-01-26T16:03:20;21.55;;;10.57;;
70560;SDS011;58109;53.570;10.084;2023-01-26T16:05:48;22.60;;;9.97;;
70560;SDS011;58109;53.570;10.084;2023-01-26T16:08:14;27.95;;;10.55;;
70560;SDS011;58109;53.570;10.084;2023-01-26T16:10:40;29.65;;;11.02;;
70560;SDS011;58109;53.570;10.084;2023-01-26T16:13:10;29.20;;;11.50;;
70560;SDS011;58109;53.570;10.084;2023-01-26T16:15:44;31.73;;;13.98;;
70560;SDS011;58109;53.570;10.084;2023-01-26T16:18:11;31.63;;;12.43;;
70560;SDS011;58109;53.570;10.084;2023-01-26T16:20:39;32.63;;;12.97;;
70560;SDS011;58109;53.570;10.084;2023-01-26T16:23:19;30.60;;;12.40;;
70560;SDS011;58109;53.570;10.084;2023-01-26T16:25:49;35.58;;;12.65;;
70560;SDS011;58109;53.570;10.084;2023-01-26T16:28:15;42.83;;;13.55;;
70560;SDS011;58109;53.570;10.084;2023-01-26T16:30:41;42.85;;;15.45;;
70560;SDS011;58109;53.570;10.084;2023-01-26T16:33:12;39.92;;;14.90;;